Main page
METAR-TAF:

METAR-TAF

Airports :

Stuttgart Airport

Stuttgart, Germany

latitude: 48-41N, longitude: 009-13E, elevation: 396 m

Current weather observation

The report was made 22 minutes ago, at 06:50 UTC
Wind 1 kt from variable directions
Temperature 5°C
Humidity 60%
Pressure 1015 hPa
Visibility 10 km or more
no clouds below 1500 m and no cumulonimbus

METAR: EDDS 030650Z VRB01KT CAVOK 05/M02 Q1015 NOSIG

Time: 09:12 (07:12 UTC)

Forecast

The report was made 2 hours and 12 minutes ago, at 05:00 UTC
Forecast valid from 03 at 06 UTC to 04 at 06 UTC
Wind 3 kt from variable directions
Visibility 10 km or more
no clouds below 1500 m and no cumulonimbus
Becoming
from 03 at 08 UTC to 03 at 11 UTC
Wind 6 kt from the West
Becoming
from 03 at 18 UTC to 03 at 20 UTC
Wind 3 kt from variable directions

TAF: EDDS 030500Z 0306/0406 VRB03KT CAVOK BECMG 0308/0311 27006KT BECMG 0318/0320 VRB03KT

Weather observations and forecasts of more than 4000 airports (METAR and TAF reports).

The available stations are represented by yellow and red dots on the map.

Hover mouse over dot to see the name of the station.

Then click to see weather observations and forecasts.

To change the map : click on the green buttons with a black cross to zoom in, on the green button with a dash to zoom out, or on the green arrows for adjacent maps.


METAR-TAF: